ADDS TAF Board (Experimental) INFO

IDs: Format: Expanded Condensed

Updated at: 1945 UTC 18 Sep 2014

KSTL - St Louis/Lambert Int, MO, US

Issued at 1721 UTC 18 Sep 2014
Time1851Z18/20Z18/21Z18/22Z18/23Z19/00Z19/01Z19/02Z19/03Z19/04Z19/05Z19/06Z19/07Z19/08Z
TypeOBSPRVLPRVLPRVLPRVLPRVLPRVLPRVLPRVLPRVLPRVLPRVLPRVLPRVL
VIS10>6>6>6>6>6>6>6>6>6>6>6>6>6
CIG----------------------------
CoverSCTSCTSCTSCTSCTSKCSKCSKCSKCSKCSKCSKCSKCSKC
FltCat--VFRVFRVFRVFRVFRVFRVFRVFRVFRVFRVFRVFRVFR
WX----------------------------
WDir8090909090100100100100100100100100100
WSpd67777444444444
WGst----------------------------
R06/24
XWnd-2-3-3-3-3-2-2-2-2-2-2-2-2-2
HWnd66666333333333
R11/29
XWnd44444111111111
HWnd46666444444444
R12/30
XWnd44444111111111
HWnd46666444444444
Raw TAF
KSTL 181721Z 1818/1924 09005KT P6SM BKN035
  FM181900 09007KT P6SM SCT040
  FM190000 10004KT P6SM SKC
  FM191500 14007KT P6SM SKC


Raw METAR
KSTL 181851Z 08006KT 10SM FEW038 SCT070 22/13 A3005 RMK AO2 SLP171 T02220133

TAF Board Legend

Hazard VFR MVFR IFR LIFR
Visibility (sm) >5 3≤X≤5 1≤X<3 <1
Ceiling (100 ft) >30 10≤X≤30 5≤X<10 <5
Wind Speed (kt) <10 10≤X<20 20≤X<30 ≥30
Wind Gust (kt) <15 15≤X<25 25≤X<35 ≥35
Weather No Wx Reported VCTS,-TS,-FZRA TS,FZRA +TS,+FZRA


Page loaded:  19:45 UTC  |   12:45 PM Pacific  |   01:45 PM Mountain  |   02:45 PM Central  |   03:45 PM Eastern

 

ADVISORIES

FORECASTS

FORECASTS

OBSERVATIONS

USER TOOLS

ABOUT US